sensor_id;sensor_type;location;lat;lon;timestamp;P1;durP1;ratioP1;P2;durP2;ratioP2
26690;SDS011;14307;51.718;8.938;2023-06-22T00:01:18;39.50;;;32.60;;
26690;SDS011;14307;51.718;8.938;2023-06-22T00:03:46;39.03;;;32.40;;
26690;SDS011;14307;51.718;8.938;2023-06-22T00:06:13;42.72;;;33.85;;
26690;SDS011;14307;51.718;8.938;2023-06-22T00:08:43;39.42;;;35.15;;
26690;SDS011;14307;51.718;8.938;2023-06-22T00:11:10;38.90;;;33.25;;
26690;SDS011;14307;51.718;8.938;2023-06-22T00:13:38;37.55;;;32.40;;
26690;SDS011;14307;51.718;8.938;2023-06-22T00:16:05;40.13;;;32.25;;
26690;SDS011;14307;51.718;8.938;2023-06-22T00:18:31;39.10;;;32.92;;
26690;SDS011;14307;51.718;8.938;2023-06-22T00:20:58;39.03;;;32.72;;
26690;SDS011;14307;51.718;8.938;2023-06-22T00:23:25;39.65;;;31.88;;
26690;SDS011;14307;51.718;8.938;2023-06-22T00:25:52;37.38;;;30.20;;
26690;SDS011;14307;51.718;8.938;2023-06-22T00:28:19;42.72;;;31.95;;
26690;SDS011;14307;51.718;8.938;2023-06-22T00:30:47;38.42;;;30.55;;
26690;SDS011;14307;51.718;8.938;2023-06-22T00:33:17;37.38;;;33.30;;
26690;SDS011;14307;51.718;8.938;2023-06-22T00:35:44;40.42;;;33.85;;
26690;SDS011;14307;51.718;8.938;2023-06-22T00:38:11;48.42;;;35.92;;
26690;SDS011;14307;51.718;8.938;2023-06-22T00:40:41;41.97;;;34.92;;
26690;SDS011;14307;51.718;8.938;2023-06-22T00:43:07;44.55;;;35.13;;
26690;SDS011;14307;51.718;8.938;2023-06-22T00:45:34;46.30;;;36.08;;
26690;SDS011;14307;51.718;8.938;2023-06-22T00:48:01;47.83;;;36.42;;
26690;SDS011;14307;51.718;8.938;2023-06-22T00:50:30;48.53;;;37.78;;
26690;SDS011;14307;51.718;8.938;2023-06-22T00:53:03;44.55;;;34.47;;
26690;SDS011;14307;51.718;8.938;2023-06-22T00:55:36;41.92;;;33.83;;
26690;SDS011;14307;51.718;8.938;2023-06-22T00:58:06;51.72;;;36.75;;
26690;SDS011;14307;51.718;8.938;2023-06-22T01:00:37;41.28;;;34.40;;
26690;SDS011;14307;51.718;8.938;2023-06-22T01:03:05;40.85;;;34.33;;
26690;SDS011;14307;51.718;8.938;2023-06-22T01:05:35;39.72;;;35.40;;
26690;SDS011;14307;51.718;8.938;2023-06-22T01:10:43;40.83;;;33.55;;
26690;SDS011;14307;51.718;8.938;2023-06-22T01:16:20;40.73;;;33.50;;
26690;SDS011;14307;51.718;8.938;2023-06-22T01:18:52;38.20;;;32.97;;
26690;SDS011;14307;51.718;8.938;2023-06-22T01:21:22;35.55;;;31.77;;
26690;SDS011;14307;51.718;8.938;2023-06-22T01:26:42;37.47;;;32.55;;
26690;SDS011;14307;51.718;8.938;2023-06-22T01:29:18;41.78;;;34.33;;
26690;SDS011;14307;51.718;8.938;2023-06-22T01:31:47;40.55;;;32.90;;
26690;SDS011;14307;51.718;8.938;2023-06-22T01:34:15;48.83;;;34.38;;
26690;SDS011;14307;51.718;8.938;2023-06-22T01:36:43;42.90;;;35.17;;
26690;SDS011;14307;51.718;8.938;2023-06-22T01:39:11;41.60;;;35.72;;
26690;SDS011;14307;51.718;8.938;2023-06-22T01:41:39;42.83;;;35.67;;
26690;SDS011;14307;51.718;8.938;2023-06-22T01:44:08;41.28;;;34.72;;
26690;SDS011;14307;51.718;8.938;2023-06-22T01:46:35;40.83;;;34.90;;
26690;SDS011;14307;51.718;8.938;2023-06-22T01:49:03;36.95;;;32.88;;
26690;SDS011;14307;51.718;8.938;2023-06-22T01:51:31;39.80;;;35.40;;
26690;SDS011;14307;51.718;8.938;2023-06-22T01:53:59;37.88;;;33.75;;
26690;SDS011;14307;51.718;8.938;2023-06-22T01:56:26;40.85;;;35.35;;
26690;SDS011;14307;51.718;8.938;2023-06-22T01:59:04;37.58;;;32.40;;
26690;SDS011;14307;51.718;8.938;2023-06-22T02:01:54;36.73;;;32.73;;
26690;SDS011;14307;51.718;8.938;2023-06-22T02:04:42;39.40;;;35.13;;
26690;SDS011;14307;51.718;8.938;2023-06-22T02:07:14;39.33;;;34.60;;
26690;SDS011;14307;51.718;8.938;2023-06-22T02:09:44;39.35;;;34.33;;
26690;SDS011;14307;51.718;8.938;2023-06-22T02:12:13;42.42;;;35.70;;
26690;SDS011;14307;51.718;8.938;2023-06-22T02:14:46;41.38;;;35.25;;
26690;SDS011;14307;51.718;8.938;2023-06-22T02:17:14;39.45;;;35.17;;
26690;SDS011;14307;51.718;8.938;2023-06-22T02:19:41;39.42;;;34.50;;
26690;SDS011;14307;51.718;8.938;2023-06-22T02:22:08;40.92;;;34.88;;
26690;SDS011;14307;51.718;8.938;2023-06-22T02:24:35;40.25;;;35.40;;
26690;SDS011;14307;51.718;8.938;2023-06-22T02:27:02;41.38;;;33.10;;
26690;SDS011;14307;51.718;8.938;2023-06-22T02:29:31;40.15;;;33.90;;
26690;SDS011;14307;51.718;8.938;2023-06-22T02:31:58;43.13;;;33.95;;
26690;SDS011;14307;51.718;8.938;2023-06-22T02:34:24;41.08;;;34.53;;
26690;SDS011;14307;51.718;8.938;2023-06-22T02:36:51;40.92;;;34.63;;
26690;SDS011;14307;51.718;8.938;2023-06-22T02:39:22;36.83;;;32.30;;
26690;SDS011;14307;51.718;8.938;2023-06-22T02:41:50;38.08;;;32.83;;
26690;SDS011;14307;51.718;8.938;2023-06-22T02:44:19;40.90;;;33.90;;
26690;SDS011;14307;51.718;8.938;2023-06-22T02:46:47;40.35;;;33.38;;
26690;SDS011;14307;51.718;8.938;2023-06-22T02:49:15;41.83;;;33.38;;
26690;SDS011;14307;51.718;8.938;2023-06-22T02:51:45;39.85;;;33.58;;
26690;SDS011;14307;51.718;8.938;2023-06-22T02:54:15;39.28;;;35.08;;
26690;SDS011;14307;51.718;8.938;2023-06-22T02:56:43;37.08;;;33.08;;
26690;SDS011;14307;51.718;8.938;2023-06-22T02:59:10;37.65;;;31.50;;
26690;SDS011;14307;51.718;8.938;2023-06-22T03:01:37;36.58;;;31.50;;
26690;SDS011;14307;51.718;8.938;2023-06-22T03:04:16;36.47;;;30.40;;
26690;SDS011;14307;51.718;8.938;2023-06-22T03:06:42;38.13;;;31.08;;
26690;SDS011;14307;51.718;8.938;2023-06-22T03:09:09;35.58;;;30.88;;
26690;SDS011;14307;51.718;8.938;2023-06-22T03:11:36;41.97;;;31.48;;
26690;SDS011;14307;51.718;8.938;2023-06-22T03:14:03;36.22;;;30.13;;
26690;SDS011;14307;51.718;8.938;2023-06-22T03:16:30;36.13;;;29.58;;
26690;SDS011;14307;51.718;8.938;2023-06-22T03:18:57;39.50;;;31.35;;
26690;SDS011;14307;51.718;8.938;2023-06-22T03:21:26;37.70;;;29.63;;
26690;SDS011;14307;51.718;8.938;2023-06-22T03:23:55;36.78;;;30.23;;
26690;SDS011;14307;51.718;8.938;2023-06-22T03:26:21;35.30;;;28.83;;
26690;SDS011;14307;51.718;8.938;2023-06-22T03:28:49;30.80;;;27.30;;
26690;SDS011;14307;51.718;8.938;2023-06-22T03:31:16;33.30;;;28.88;;
26690;SDS011;14307;51.718;8.938;2023-06-22T03:33:48;30.50;;;27.13;;
26690;SDS011;14307;51.718;8.938;2023-06-22T03:36:16;30.98;;;27.65;;
26690;SDS011;14307;51.718;8.938;2023-06-22T03:38:47;34.53;;;30.33;;
26690;SDS011;14307;51.718;8.938;2023-06-22T03:41:15;34.63;;;30.88;;
26690;SDS011;14307;51.718;8.938;2023-06-22T03:43:43;33.42;;;29.30;;
26690;SDS011;14307;51.718;8.938;2023-06-22T03:46:09;35.55;;;30.08;;
26690;SDS011;14307;51.718;8.938;2023-06-22T03:48:37;36.78;;;30.60;;
26690;SDS011;14307;51.718;8.938;2023-06-22T03:51:04;36.35;;;30.98;;
26690;SDS011;14307;51.718;8.938;2023-06-22T03:53:30;36.58;;;29.63;;
26690;SDS011;14307;51.718;8.938;2023-06-22T03:55:57;33.80;;;28.98;;
26690;SDS011;14307;51.718;8.938;2023-06-22T03:58:24;34.20;;;29.35;;
26690;SDS011;14307;51.718;8.938;2023-06-22T04:00:51;35.47;;;31.00;;
26690;SDS011;14307;51.718;8.938;2023-06-22T04:03:19;32.00;;;28.63;;
26690;SDS011;14307;51.718;8.938;2023-06-22T04:05:46;34.92;;;28.40;;
26690;SDS011;14307;51.718;8.938;2023-06-22T04:08:14;34.05;;;30.15;;
26690;SDS011;14307;51.718;8.938;2023-06-22T04:10:42;38.30;;;30.10;;
26690;SDS011;14307;51.718;8.938;2023-06-22T04:13:09;34.97;;;29.73;;
26690;SDS011;14307;51.718;8.938;2023-06-22T04:15:36;33.28;;;29.73;;
26690;SDS011;14307;51.718;8.938;2023-06-22T04:18:03;37.17;;;29.63;;
26690;SDS011;14307;51.718;8.938;2023-06-22T04:20:30;32.22;;;28.83;;
26690;SDS011;14307;51.718;8.938;2023-06-22T04:22:58;33.25;;;29.90;;
26690;SDS011;14307;51.718;8.938;2023-06-22T04:25:25;33.20;;;29.85;;
26690;SDS011;14307;51.718;8.938;2023-06-22T04:27:52;37.40;;;29.17;;
26690;SDS011;14307;51.718;8.938;2023-06-22T04:30:18;34.35;;;30.48;;
26690;SDS011;14307;51.718;8.938;2023-06-22T04:32:45;36.13;;;32.25;;
26690;SDS011;14307;51.718;8.938;2023-06-22T04:35:24;34.53;;;31.00;;
26690;SDS011;14307;51.718;8.938;2023-06-22T04:37:52;32.97;;;28.80;;
26690;SDS011;14307;51.718;8.938;2023-06-22T04:40:21;35.67;;;30.50;;
26690;SDS011;14307;51.718;8.938;2023-06-22T04:42:48;34.33;;;30.80;;
26690;SDS011;14307;51.718;8.938;2023-06-22T04:45:19;35.25;;;31.75;;
26690;SDS011;14307;51.718;8.938;2023-06-22T04:47:47;35.08;;;31.23;;
26690;SDS011;14307;51.718;8.938;2023-06-22T04:50:14;35.58;;;31.83;;
26690;SDS011;14307;51.718;8.938;2023-06-22T04:52:41;37.40;;;31.38;;
26690;SDS011;14307;51.718;8.938;2023-06-22T04:55:07;33.05;;;29.38;;
26690;SDS011;14307;51.718;8.938;2023-06-22T04:57:35;31.65;;;27.98;;
26690;SDS011;14307;51.718;8.938;2023-06-22T05:00:02;33.60;;;30.00;;
26690;SDS011;14307;51.718;8.938;2023-06-22T05:02:39;33.53;;;30.13;;
26690;SDS011;14307;51.718;8.938;2023-06-22T05:05:07;35.97;;;30.13;;
26690;SDS011;14307;51.718;8.938;2023-06-22T05:07:35;34.25;;;30.73;;
26690;SDS011;14307;51.718;8.938;2023-06-22T05:10:02;33.08;;;29.55;;
26690;SDS011;14307;51.718;8.938;2023-06-22T05:12:30;35.03;;;30.60;;
26690;SDS011;14307;51.718;8.938;2023-06-22T05:14:57;32.00;;;28.70;;
26690;SDS011;14307;51.718;8.938;2023-06-22T05:17:24;28.52;;;25.83;;
26690;SDS011;14307;51.718;8.938;2023-06-22T05:19:51;31.00;;;27.85;;
26690;SDS011;14307;51.718;8.938;2023-06-22T05:22:18;28.45;;;25.77;;
26690;SDS011;14307;51.718;8.938;2023-06-22T05:24:45;30.02;;;26.98;;
26690;SDS011;14307;51.718;8.938;2023-06-22T05:27:12;28.70;;;25.88;;
26690;SDS011;14307;51.718;8.938;2023-06-22T05:29:40;29.33;;;26.60;;
26690;SDS011;14307;51.718;8.938;2023-06-22T05:32:07;28.75;;;26.15;;
26690;SDS011;14307;51.718;8.938;2023-06-22T05:34:34;27.50;;;24.80;;
26690;SDS011;14307;51.718;8.938;2023-06-22T05:37:01;27.20;;;24.70;;
26690;SDS011;14307;51.718;8.938;2023-06-22T05:39:29;27.58;;;24.85;;
26690;SDS011;14307;51.718;8.938;2023-06-22T05:41:55;28.88;;;26.38;;
26690;SDS011;14307;51.718;8.938;2023-06-22T05:44:22;29.00;;;26.55;;
26690;SDS011;14307;51.718;8.938;2023-06-22T05:46:49;30.30;;;27.67;;
26690;SDS011;14307;51.718;8.938;2023-06-22T05:49:16;31.83;;;28.85;;
26690;SDS011;14307;51.718;8.938;2023-06-22T05:51:43;31.55;;;28.45;;
26690;SDS011;14307;51.718;8.938;2023-06-22T05:54:09;30.90;;;28.00;;
26690;SDS011;14307;51.718;8.938;2023-06-22T05:56:36;28.33;;;25.52;;
26690;SDS011;14307;51.718;8.938;2023-06-22T05:59:03;28.58;;;25.88;;
26690;SDS011;14307;51.718;8.938;2023-06-22T06:01:30;27.10;;;24.77;;
26690;SDS011;14307;51.718;8.938;2023-06-22T06:04:04;26.88;;;24.52;;
26690;SDS011;14307;51.718;8.938;2023-06-22T06:06:36;26.10;;;23.83;;
26690;SDS011;14307;51.718;8.938;2023-06-22T06:09:04;26.23;;;23.83;;
26690;SDS011;14307;51.718;8.938;2023-06-22T06:11:31;26.58;;;24.27;;
26690;SDS011;14307;51.718;8.938;2023-06-22T06:13:58;26.40;;;24.20;;
26690;SDS011;14307;51.718;8.938;2023-06-22T06:16:25;26.40;;;24.08;;
26690;SDS011;14307;51.718;8.938;2023-06-22T06:18:51;26.25;;;24.20;;
26690;SDS011;14307;51.718;8.938;2023-06-22T06:21:20;26.40;;;24.33;;
26690;SDS011;14307;51.718;8.938;2023-06-22T06:23:47;27.92;;;25.73;;
26690;SDS011;14307;51.718;8.938;2023-06-22T06:26:14;25.65;;;23.67;;
26690;SDS011;14307;51.718;8.938;2023-06-22T06:28:43;27.13;;;25.02;;
26690;SDS011;14307;51.718;8.938;2023-06-22T06:31:10;30.30;;;27.65;;
26690;SDS011;14307;51.718;8.938;2023-06-22T06:33:38;30.98;;;28.23;;
26690;SDS011;14307;51.718;8.938;2023-06-22T06:36:05;29.13;;;26.52;;
26690;SDS011;14307;51.718;8.938;2023-06-22T06:38:31;28.10;;;25.73;;
26690;SDS011;14307;51.718;8.938;2023-06-22T06:40:58;28.40;;;26.00;;
26690;SDS011;14307;51.718;8.938;2023-06-22T06:43:25;27.02;;;24.63;;
26690;SDS011;14307;51.718;8.938;2023-06-22T06:45:52;27.00;;;24.90;;
26690;SDS011;14307;51.718;8.938;2023-06-22T06:48:19;27.00;;;24.30;;
26690;SDS011;14307;51.718;8.938;2023-06-22T06:50:46;26.75;;;24.30;;
26690;SDS011;14307;51.718;8.938;2023-06-22T06:53:13;26.17;;;24.02;;
26690;SDS011;14307;51.718;8.938;2023-06-22T06:55:40;28.02;;;25.63;;
26690;SDS011;14307;51.718;8.938;2023-06-22T06:58:07;29.13;;;26.40;;
26690;SDS011;14307;51.718;8.938;2023-06-22T07:00:36;27.75;;;25.30;;
26690;SDS011;14307;51.718;8.938;2023-06-22T07:03:03;30.00;;;27.30;;
26690;SDS011;14307;51.718;8.938;2023-06-22T07:05:30;28.75;;;26.20;;
26690;SDS011;14307;51.718;8.938;2023-06-22T07:07:57;27.60;;;24.80;;
26690;SDS011;14307;51.718;8.938;2023-06-22T07:10:24;26.05;;;23.45;;
26690;SDS011;14307;51.718;8.938;2023-06-22T07:12:51;27.58;;;24.85;;
26690;SDS011;14307;51.718;8.938;2023-06-22T07:15:17;26.52;;;24.10;;
26690;SDS011;14307;51.718;8.938;2023-06-22T07:17:44;27.40;;;24.80;;
26690;SDS011;14307;51.718;8.938;2023-06-22T07:20:11;27.35;;;24.77;;
26690;SDS011;14307;51.718;8.938;2023-06-22T07:22:39;25.45;;;23.08;;
26690;SDS011;14307;51.718;8.938;2023-06-22T07:25:07;27.35;;;24.73;;
26690;SDS011;14307;51.718;8.938;2023-06-22T07:27:45;25.75;;;23.15;;
26690;SDS011;14307;51.718;8.938;2023-06-22T07:30:14;25.50;;;22.88;;
26690;SDS011;14307;51.718;8.938;2023-06-22T07:32:40;26.65;;;23.90;;
26690;SDS011;14307;51.718;8.938;2023-06-22T07:35:08;26.52;;;24.13;;
26690;SDS011;14307;51.718;8.938;2023-06-22T07:37:35;23.38;;;21.10;;
26690;SDS011;14307;51.718;8.938;2023-06-22T07:40:01;23.15;;;20.85;;
26690;SDS011;14307;51.718;8.938;2023-06-22T07:42:32;24.00;;;21.58;;
26690;SDS011;14307;51.718;8.938;2023-06-22T07:44:59;23.88;;;21.63;;
26690;SDS011;14307;51.718;8.938;2023-06-22T07:47:27;22.33;;;20.17;;
26690;SDS011;14307;51.718;8.938;2023-06-22T07:49:55;21.60;;;19.50;;
26690;SDS011;14307;51.718;8.938;2023-06-22T07:52:24;21.38;;;19.30;;
26690;SDS011;14307;51.718;8.938;2023-06-22T07:54:52;21.17;;;19.13;;
26690;SDS011;14307;51.718;8.938;2023-06-22T07:57:19;20.23;;;18.42;;
26690;SDS011;14307;51.718;8.938;2023-06-22T07:59:46;21.02;;;19.23;;
26690;SDS011;14307;51.718;8.938;2023-06-22T08:02:13;21.80;;;19.73;;
26690;SDS011;14307;51.718;8.938;2023-06-22T08:04:40;23.38;;;21.30;;
26690;SDS011;14307;51.718;8.938;2023-06-22T08:07:07;22.17;;;20.27;;
26690;SDS011;14307;51.718;8.938;2023-06-22T08:09:34;21.02;;;19.23;;
26690;SDS011;14307;51.718;8.938;2023-06-22T08:12:01;20.38;;;18.77;;
26690;SDS011;14307;51.718;8.938;2023-06-22T08:14:29;21.20;;;19.60;;
26690;SDS011;14307;51.718;8.938;2023-06-22T08:16:56;20.42;;;18.92;;
26690;SDS011;14307;51.718;8.938;2023-06-22T08:19:23;21.70;;;19.70;;
26690;SDS011;14307;51.718;8.938;2023-06-22T08:21:49;22.13;;;20.23;;
26690;SDS011;14307;51.718;8.938;2023-06-22T08:24:16;22.23;;;20.42;;
26690;SDS011;14307;51.718;8.938;2023-06-22T08:26:43;19.30;;;17.77;;
26690;SDS011;14307;51.718;8.938;2023-06-22T08:29:10;23.92;;;22.15;;
26690;SDS011;14307;51.718;8.938;2023-06-22T08:31:36;26.48;;;24.35;;
26690;SDS011;14307;51.718;8.938;2023-06-22T08:34:04;27.02;;;25.13;;
26690;SDS011;14307;51.718;8.938;2023-06-22T08:36:31;29.45;;;27.35;;
26690;SDS011;14307;51.718;8.938;2023-06-22T08:39:01;30.33;;;28.00;;
26690;SDS011;14307;51.718;8.938;2023-06-22T08:41:29;29.63;;;27.50;;
26690;SDS011;14307;51.718;8.938;2023-06-22T08:43:57;31.33;;;28.73;;
26690;SDS011;14307;51.718;8.938;2023-06-22T08:46:23;30.33;;;28.23;;
26690;SDS011;14307;51.718;8.938;2023-06-22T08:48:56;30.27;;;28.13;;
26690;SDS011;14307;51.718;8.938;2023-06-22T08:51:26;29.17;;;27.25;;
26690;SDS011;14307;51.718;8.938;2023-06-22T08:53:53;32.28;;;29.92;;
26690;SDS011;14307;51.718;8.938;2023-06-22T08:56:20;29.65;;;27.58;;
26690;SDS011;14307;51.718;8.938;2023-06-22T08:58:47;31.67;;;29.48;;
26690;SDS011;14307;51.718;8.938;2023-06-22T09:01:13;32.33;;;30.23;;
26690;SDS011;14307;51.718;8.938;2023-06-22T09:03:41;34.10;;;31.80;;
26690;SDS011;14307;51.718;8.938;2023-06-22T09:06:09;34.63;;;32.33;;
26690;SDS011;14307;51.718;8.938;2023-06-22T09:08:36;34.00;;;31.67;;
26690;SDS011;14307;51.718;8.938;2023-06-22T09:11:03;34.03;;;31.63;;
26690;SDS011;14307;51.718;8.938;2023-06-22T09:13:30;33.53;;;31.23;;
26690;SDS011;14307;51.718;8.938;2023-06-22T09:15:58;35.67;;;33.22;;
26690;SDS011;14307;51.718;8.938;2023-06-22T09:18:25;33.78;;;31.38;;
26690;SDS011;14307;51.718;8.938;2023-06-22T09:20:51;34.58;;;32.17;;
26690;SDS011;14307;51.718;8.938;2023-06-22T09:23:18;35.38;;;32.97;;
26690;SDS011;14307;51.718;8.938;2023-06-22T09:25:45;35.13;;;32.80;;
26690;SDS011;14307;51.718;8.938;2023-06-22T09:28:14;36.15;;;33.58;;
26690;SDS011;14307;51.718;8.938;2023-06-22T09:30:42;35.50;;;32.88;;
26690;SDS011;14307;51.718;8.938;2023-06-22T09:33:11;34.50;;;32.08;;
26690;SDS011;14307;51.718;8.938;2023-06-22T09:35:38;34.95;;;32.45;;
26690;SDS011;14307;51.718;8.938;2023-06-22T09:38:04;34.55;;;32.03;;
26690;SDS011;14307;51.718;8.938;2023-06-22T09:40:31;36.30;;;33.55;;
26690;SDS011;14307;51.718;8.938;2023-06-22T09:43:01;35.95;;;33.25;;
26690;SDS011;14307;51.718;8.938;2023-06-22T09:45:28;38.80;;;35.90;;
26690;SDS011;14307;51.718;8.938;2023-06-22T09:47:55;38.75;;;35.75;;
26690;SDS011;14307;51.718;8.938;2023-06-22T09:50:21;38.47;;;35.45;;
26690;SDS011;14307;51.718;8.938;2023-06-22T09:52:48;37.15;;;34.30;;
26690;SDS011;14307;51.718;8.938;2023-06-22T09:55:20;37.85;;;35.03;;
26690;SDS011;14307;51.718;8.938;2023-06-22T09:57:48;40.72;;;37.30;;
26690;SDS011;14307;51.718;8.938;2023-06-22T10:00:16;39.83;;;36.63;;
26690;SDS011;14307;51.718;8.938;2023-06-22T10:02:43;44.65;;;35.25;;
26690;SDS011;14307;51.718;8.938;2023-06-22T10:05:11;36.60;;;33.92;;
26690;SDS011;14307;51.718;8.938;2023-06-22T10:07:38;35.22;;;32.75;;
26690;SDS011;14307;51.718;8.938;2023-06-22T10:10:09;36.45;;;33.83;;
26690;SDS011;14307;51.718;8.938;2023-06-22T10:12:37;36.08;;;33.28;;
26690;SDS011;14307;51.718;8.938;2023-06-22T10:15:08;36.38;;;33.78;;
26690;SDS011;14307;51.718;8.938;2023-06-22T10:17:35;37.15;;;34.35;;
26690;SDS011;14307;51.718;8.938;2023-06-22T10:20:02;38.25;;;35.15;;
26690;SDS011;14307;51.718;8.938;2023-06-22T10:22:41;36.03;;;32.97;;
26690;SDS011;14307;51.718;8.938;2023-06-22T10:25:09;35.22;;;32.80;;
26690;SDS011;14307;51.718;8.938;2023-06-22T10:27:38;38.17;;;35.45;;
26690;SDS011;14307;51.718;8.938;2023-06-22T10:30:09;36.47;;;33.78;;
26690;SDS011;14307;51.718;8.938;2023-06-22T10:32:39;37.17;;;34.58;;
26690;SDS011;14307;51.718;8.938;2023-06-22T10:35:08;38.65;;;35.70;;
26690;SDS011;14307;51.718;8.938;2023-06-22T10:37:42;37.10;;;34.20;;
26690;SDS011;14307;51.718;8.938;2023-06-22T10:40:11;35.53;;;33.05;;
26690;SDS011;14307;51.718;8.938;2023-06-22T10:42:39;37.00;;;33.42;;
26690;SDS011;14307;51.718;8.938;2023-06-22T10:45:06;33.88;;;31.45;;
26690;SDS011;14307;51.718;8.938;2023-06-22T10:47:34;35.53;;;33.03;;
26690;SDS011;14307;51.718;8.938;2023-06-22T10:50:02;35.97;;;33.25;;
26690;SDS011;14307;51.718;8.938;2023-06-22T10:52:29;37.03;;;34.13;;
26690;SDS011;14307;51.718;8.938;2023-06-22T10:54:56;35.63;;;33.15;;
26690;SDS011;14307;51.718;8.938;2023-06-22T10:57:24;35.10;;;32.45;;
26690;SDS011;14307;51.718;8.938;2023-06-22T10:59:50;36.10;;;33.17;;
26690;SDS011;14307;51.718;8.938;2023-06-22T11:02:17;36.95;;;34.25;;
26690;SDS011;14307;51.718;8.938;2023-06-22T11:04:44;37.92;;;35.13;;
26690;SDS011;14307;51.718;8.938;2023-06-22T11:07:12;35.03;;;32.20;;
26690;SDS011;14307;51.718;8.938;2023-06-22T11:09:39;34.97;;;32.40;;
26690;SDS011;14307;51.718;8.938;2023-06-22T11:12:06;35.67;;;32.85;;
26690;SDS011;14307;51.718;8.938;2023-06-22T11:14:33;35.50;;;32.72;;
26690;SDS011;14307;51.718;8.938;2023-06-22T11:17:00;35.58;;;32.85;;
26690;SDS011;14307;51.718;8.938;2023-06-22T11:19:26;38.25;;;35.33;;
26690;SDS011;14307;51.718;8.938;2023-06-22T11:21:53;36.67;;;34.08;;
26690;SDS011;14307;51.718;8.938;2023-06-22T11:24:20;36.22;;;33.63;;
26690;SDS011;14307;51.718;8.938;2023-06-22T11:26:47;40.42;;;37.15;;
26690;SDS011;14307;51.718;8.938;2023-06-22T11:29:13;40.63;;;37.63;;
26690;SDS011;14307;51.718;8.938;2023-06-22T11:32:00;40.47;;;37.53;;
26690;SDS011;14307;51.718;8.938;2023-06-22T11:34:27;36.60;;;33.70;;
26690;SDS011;14307;51.718;8.938;2023-06-22T11:36:54;38.15;;;35.45;;
26690;SDS011;14307;51.718;8.938;2023-06-22T11:39:21;38.10;;;35.42;;
26690;SDS011;14307;51.718;8.938;2023-06-22T11:42:04;36.90;;;34.25;;
26690;SDS011;14307;51.718;8.938;2023-06-22T11:44:32;36.67;;;33.97;;
26690;SDS011;14307;51.718;8.938;2023-06-22T11:46:58;37.92;;;35.22;;
26690;SDS011;14307;51.718;8.938;2023-06-22T11:49:27;38.53;;;35.55;;
26690;SDS011;14307;51.718;8.938;2023-06-22T11:51:54;40.10;;;37.03;;
26690;SDS011;14307;51.718;8.938;2023-06-22T11:54:21;38.75;;;35.95;;
26690;SDS011;14307;51.718;8.938;2023-06-22T11:56:48;37.30;;;34.75;;
26690;SDS011;14307;51.718;8.938;2023-06-22T11:59:14;36.67;;;34.05;;
26690;SDS011;14307;51.718;8.938;2023-06-22T12:01:41;37.47;;;34.53;;
26690;SDS011;14307;51.718;8.938;2023-06-22T12:04:08;37.03;;;34.33;;
26690;SDS011;14307;51.718;8.938;2023-06-22T12:06:37;37.40;;;34.45;;
26690;SDS011;14307;51.718;8.938;2023-06-22T12:09:08;39.88;;;36.92;;
26690;SDS011;14307;51.718;8.938;2023-06-22T12:11:35;37.55;;;34.88;;
26690;SDS011;14307;51.718;8.938;2023-06-22T12:14:02;36.63;;;33.70;;
26690;SDS011;14307;51.718;8.938;2023-06-22T12:16:28;38.08;;;35.00;;
26690;SDS011;14307;51.718;8.938;2023-06-22T12:18:55;39.03;;;36.13;;
26690;SDS011;14307;51.718;8.938;2023-06-22T12:21:22;36.35;;;33.67;;
26690;SDS011;14307;51.718;8.938;2023-06-22T12:23:49;36.05;;;33.30;;
26690;SDS011;14307;51.718;8.938;2023-06-22T12:26:16;35.45;;;32.75;;
26690;SDS011;14307;51.718;8.938;2023-06-22T12:28:42;35.65;;;32.75;;
26690;SDS011;14307;51.718;8.938;2023-06-22T12:31:09;35.72;;;32.83;;
26690;SDS011;14307;51.718;8.938;2023-06-22T12:33:36;35.75;;;32.72;;
26690;SDS011;14307;51.718;8.938;2023-06-22T12:36:03;37.13;;;34.22;;
26690;SDS011;14307;51.718;8.938;2023-06-22T12:38:31;36.67;;;34.08;;
26690;SDS011;14307;51.718;8.938;2023-06-22T12:40:58;38.83;;;35.67;;
26690;SDS011;14307;51.718;8.938;2023-06-22T12:43:25;37.92;;;34.80;;
26690;SDS011;14307;51.718;8.938;2023-06-22T12:45:52;38.45;;;35.17;;
26690;SDS011;14307;51.718;8.938;2023-06-22T12:48:19;38.05;;;34.97;;
26690;SDS011;14307;51.718;8.938;2023-06-22T12:50:47;37.17;;;34.30;;
26690;SDS011;14307;51.718;8.938;2023-06-22T12:53:14;34.55;;;31.85;;
26690;SDS011;14307;51.718;8.938;2023-06-22T12:55:41;35.42;;;32.47;;
26690;SDS011;14307;51.718;8.938;2023-06-22T12:58:08;35.15;;;32.25;;
26690;SDS011;14307;51.718;8.938;2023-06-22T13:00:34;34.55;;;31.92;;
26690;SDS011;14307;51.718;8.938;2023-06-22T13:03:01;33.75;;;30.65;;
26690;SDS011;14307;51.718;8.938;2023-06-22T13:05:29;30.00;;;26.95;;
26690;SDS011;14307;51.718;8.938;2023-06-22T13:07:56;29.15;;;26.13;;
26690;SDS011;14307;51.718;8.938;2023-06-22T13:10:23;24.88;;;22.48;;
26690;SDS011;14307;51.718;8.938;2023-06-22T13:12:50;30.77;;;27.55;;
26690;SDS011;14307;51.718;8.938;2023-06-22T13:15:18;25.83;;;23.17;;
26690;SDS011;14307;51.718;8.938;2023-06-22T13:17:45;30.35;;;27.23;;
26690;SDS011;14307;51.718;8.938;2023-06-22T13:20:11;28.45;;;25.77;;
26690;SDS011;14307;51.718;8.938;2023-06-22T13:22:38;29.15;;;26.45;;
26690;SDS011;14307;51.718;8.938;2023-06-22T13:25:09;30.48;;;27.40;;
26690;SDS011;14307;51.718;8.938;2023-06-22T13:27:39;29.65;;;27.05;;
26690;SDS011;14307;51.718;8.938;2023-06-22T13:30:07;27.50;;;25.00;;
26690;SDS011;14307;51.718;8.938;2023-06-22T13:32:39;29.13;;;26.42;;
26690;SDS011;14307;51.718;8.938;2023-06-22T13:35:08;30.30;;;27.35;;
26690;SDS011;14307;51.718;8.938;2023-06-22T13:37:36;28.45;;;25.70;;
26690;SDS011;14307;51.718;8.938;2023-06-22T13:40:06;29.17;;;26.25;;
26690;SDS011;14307;51.718;8.938;2023-06-22T13:42:34;29.83;;;26.83;;
26690;SDS011;14307;51.718;8.938;2023-06-22T13:45:00;29.63;;;26.75;;
26690;SDS011;14307;51.718;8.938;2023-06-22T13:47:28;30.77;;;27.60;;
26690;SDS011;14307;51.718;8.938;2023-06-22T13:49:56;33.30;;;29.75;;
26690;SDS011;14307;51.718;8.938;2023-06-22T13:52:24;36.85;;;30.90;;
26690;SDS011;14307;51.718;8.938;2023-06-22T13:54:51;53.10;;;36.85;;
26690;SDS011;14307;51.718;8.938;2023-06-22T13:57:18;47.38;;;36.22;;
26690;SDS011;14307;51.718;8.938;2023-06-22T13:59:44;53.72;;;39.63;;
26690;SDS011;14307;51.718;8.938;2023-06-22T14:02:11;54.60;;;40.33;;
26690;SDS011;14307;51.718;8.938;2023-06-22T14:04:38;57.85;;;43.88;;
26690;SDS011;14307;51.718;8.938;2023-06-22T14:07:05;60.67;;;45.33;;
26690;SDS011;14307;51.718;8.938;2023-06-22T14:09:32;62.95;;;44.80;;
26690;SDS011;14307;51.718;8.938;2023-06-22T14:12:02;66.57;;;47.28;;
26690;SDS011;14307;51.718;8.938;2023-06-22T14:14:31;64.25;;;45.78;;
26690;SDS011;14307;51.718;8.938;2023-06-22T14:16:59;62.30;;;42.67;;
26690;SDS011;14307;51.718;8.938;2023-06-22T14:19:26;78.32;;;49.80;;
26690;SDS011;14307;51.718;8.938;2023-06-22T14:21:53;74.05;;;46.88;;
26690;SDS011;14307;51.718;8.938;2023-06-22T14:24:20;80.43;;;48.90;;
26690;SDS011;14307;51.718;8.938;2023-06-22T14:26:50;82.75;;;50.53;;
26690;SDS011;14307;51.718;8.938;2023-06-22T14:29:17;2.25;;;2.10;;
26690;SDS011;14307;51.718;8.938;2023-06-22T14:31:45;1.65;;;1.42;;
26690;SDS011;14307;51.718;8.938;2023-06-22T14:34:13;0.32;;;0.32;;